createdAt,value
2022-09-28T00:00:09.565Z,99877.47
2022-09-28T00:05:07.774Z,99849.88
2022-09-28T00:10:00.977Z,99877.47
2022-09-28T00:14:54.145Z,99852.84
2022-09-28T00:19:47.315Z,99822.38
2022-09-28T00:24:41.906Z,99874.19
2022-09-28T00:29:37.007Z,99844.41
2022-09-28T00:34:32.387Z,99865.94
2022-09-28T00:39:27.121Z,99846.06
2022-09-28T00:44:39.337Z,99853.44
2022-09-28T00:49:37.141Z,99850.34
2022-09-28T00:54:31.335Z,99862.69
2022-09-28T00:59:25.159Z,99861.22
2022-09-28T01:04:20.134Z,99817.94
2022-09-28T01:09:15.567Z,99811.88
2022-09-28T01:14:16.821Z,99791.34
2022-09-28T01:19:32.837Z,99832.75
2022-09-28T01:24:41.153Z,99831.94
2022-09-28T01:29:49.382Z,99866.13
2022-09-28T01:34:49.469Z,99771.94
2022-09-28T01:39:44.555Z,99869.94
2022-09-28T01:44:44.171Z,99817.47
2022-09-28T01:49:41.230Z,99805.97
2022-09-28T01:54:40.065Z,99871.91
2022-09-28T01:59:35.954Z,99854.97
2022-09-28T02:04:37.146Z,99879.13
2022-09-28T02:09:36.371Z,99857.41
2022-09-28T02:14:31.116Z,99853.13
2022-09-28T02:19:29.430Z,99854.44
2022-09-28T02:24:34.271Z,99922.97
2022-09-28T02:29:27.750Z,99835.22
2022-09-28T02:34:21.098Z,99928.50
2022-09-28T02:39:16.991Z,99911.66
2022-09-28T02:44:25.601Z,99894.94
2022-09-28T02:49:26.872Z,99903.13
2022-09-28T02:54:39.372Z,99914.22
2022-09-28T02:59:46.007Z,99941.63
2022-09-28T03:04:47.322Z,99938.59
2022-09-28T03:09:56.194Z,99910.59
2022-09-28T03:15:07.266Z,99863.94
2022-09-28T03:20:00.835Z,99920.13
2022-09-28T03:24:54.166Z,99930.53
2022-09-28T03:29:47.414Z,99859.81
2022-09-28T03:34:42.425Z,99840.97
2022-09-28T03:39:36.461Z,99960.06
2022-09-28T03:44:33.100Z,99936.94
2022-09-28T03:49:27.106Z,99870.16
2022-09-28T03:54:21.795Z,99888.59
2022-09-28T03:59:15.263Z,99971.53
2022-09-28T04:04:08.464Z,99959.00
2022-09-28T04:09:01.725Z,99969.50
2022-09-28T04:13:57.128Z,99975.19
2022-09-28T04:18:51.270Z,99945.03
2022-09-28T04:24:11.748Z,99983.13
2022-09-28T04:29:19.693Z,99865.69
2022-09-28T04:34:18.450Z,99976.06
2022-09-28T04:39:12.234Z,99978.38
2022-09-28T04:44:09.068Z,99927.25
2022-09-28T04:49:03.565Z,99951.47
2022-09-28T04:54:19.138Z,99967.00
2022-09-28T04:59:14.125Z,99956.34
2022-09-28T05:04:08.996Z,99985.44
2022-09-28T05:09:14.225Z,99963.41
2022-09-28T05:14:07.590Z,99961.63
2022-09-28T05:19:02.204Z,99978.59
2022-09-28T05:23:56.223Z,99973.47
2022-09-28T05:28:49.908Z,99990.50
2022-09-28T05:34:22.397Z,99993.97
2022-09-28T05:39:15.566Z,99966.38
2022-09-28T05:44:11.676Z,99979.81
2022-09-28T05:49:05.026Z,99995.41
2022-09-28T05:54:05.424Z,100011.88
2022-09-28T05:58:59.831Z,99983.19
2022-09-28T06:03:55.884Z,100000.56
2022-09-28T06:08:50.155Z,100014.59
2022-09-28T06:14:13.851Z,100024.88
2022-09-28T06:19:08.811Z,100034.59
2022-09-28T06:24:27.715Z,100033.13
2022-09-28T06:29:22.282Z,99989.00
2022-09-28T06:34:15.847Z,99984.53
2022-09-28T06:39:10.853Z,99955.56
2022-09-28T06:44:04.504Z,99999.31
2022-09-28T06:49:31.412Z,99972.50
2022-09-28T06:54:56.386Z,100010.91
2022-09-28T06:59:56.073Z,100063.16
2022-09-28T07:04:50.661Z,100032.50
2022-09-28T07:10:02.956Z,100026.53
2022-09-28T07:15:22.945Z,100071.19
2022-09-28T07:20:19.587Z,100068.44
2022-09-28T07:25:15.123Z,99981.97
2022-09-28T07:30:28.633Z,99989.34
2022-09-28T07:35:52.919Z,100069.69
2022-09-28T07:41:05.486Z,100037.00
2022-09-28T07:45:59.166Z,100076.00
2022-09-28T07:50:56.902Z,100036.13
2022-09-28T07:56:02.330Z,100055.19
2022-09-28T08:01:15.398Z,100027.91
2022-09-28T08:06:12.734Z,100052.72
2022-09-28T08:11:08.598Z,100077.66
2022-09-28T08:16:25.290Z,100027.78
2022-09-28T08:21:46.327Z,100067.41
2022-09-28T08:26:40.263Z,100067.63
2022-09-28T08:31:34.927Z,100040.59
2022-09-28T08:36:46.201Z,99998.91
2022-09-28T08:42:30.396Z,100041.97
2022-09-28T08:48:14.495Z,100024.44
2022-09-28T08:53:35.252Z,100050.84
2022-09-28T08:58:40.981Z,99997.91
2022-09-28T09:03:37.781Z,100005.88
2022-09-28T09:09:03.993Z,100005.06
2022-09-28T09:14:17.951Z,99989.44
2022-09-28T09:19:17.739Z,100004.78
2022-09-28T09:24:34.406Z,100017.91
2022-09-28T09:29:36.533Z,100042.16
2022-09-28T09:34:52.849Z,100035.69
2022-09-28T09:40:25.069Z,100024.56
2022-09-28T09:45:51.373Z,100046.38
2022-09-28T09:51:06.955Z,99902.31
2022-09-28T09:56:06.988Z,100052.72
2022-09-28T10:01:13.733Z,100058.13
2022-09-28T10:06:36.054Z,100043.69
2022-09-28T10:11:36.644Z,100037.31
2022-09-28T10:16:34.639Z,100029.31
2022-09-28T10:21:37.628Z,100031.97
2022-09-28T10:26:54.003Z,100027.19
2022-09-28T10:31:48.608Z,100043.06
2022-09-28T10:37:05.572Z,100043.06
2022-09-28T10:42:24.366Z,100012.56
2022-09-28T10:47:22.402Z,100005.69
2022-09-28T10:52:34.422Z,99957.66
2022-09-28T10:57:33.876Z,99994.03
2022-09-28T11:02:36.706Z,100034.84
2022-09-28T11:07:45.329Z,100024.94
2022-09-28T11:12:45.800Z,100022.56
2022-09-28T11:17:44.062Z,99981.56
2022-09-28T11:22:42.491Z,99951.47
2022-09-28T11:27:37.334Z,100000.75
2022-09-28T11:32:41.170Z,99926.75
2022-09-28T11:38:02.123Z,99997.22
2022-09-28T11:43:31.941Z,99994.44
2022-09-28T11:48:35.344Z,99992.91
2022-09-28T11:53:34.748Z,99951.56
2022-09-28T11:58:35.966Z,99988.78
2022-09-28T12:03:38.962Z,99989.22
2022-09-28T12:08:37.505Z,99994.09
2022-09-28T12:13:36.431Z,99986.28
2022-09-28T12:18:32.973Z,99990.59
2022-09-28T12:23:33.354Z,99967.56
2022-09-28T12:28:34.742Z,99965.81
2022-09-28T12:33:27.883Z,99976.75
2022-09-28T12:38:39.747Z,99936.63
2022-09-28T12:43:57.522Z,99954.31
2022-09-28T12:49:47.586Z,99964.81
2022-09-28T12:54:42.158Z,99954.00
2022-09-28T12:59:40.394Z,99950.59
2022-09-28T13:04:51.565Z,99917.91
2022-09-28T13:09:57.928Z,99966.34
2022-09-28T13:15:10.438Z,99937.84
2022-09-28T13:20:20.729Z,99973.50
2022-09-28T13:25:19.073Z,99912.50
2022-09-28T13:30:17.319Z,99901.72
2022-09-28T13:35:15.103Z,99980.88
2022-09-28T13:40:09.226Z,99968.75
2022-09-28T13:45:18.889Z,99940.25
2022-09-28T13:50:22.470Z,99973.25
2022-09-28T13:55:25.032Z,99944.50
2022-09-28T14:00:27.421Z,99958.59
2022-09-28T14:05:47.661Z,99980.50
2022-09-28T14:10:49.901Z,99990.19
2022-09-28T14:15:47.455Z,99987.16
2022-09-28T14:20:51.938Z,99954.03
2022-09-28T14:25:46.641Z,99976.16
2022-09-28T14:30:54.237Z,99947.53
2022-09-28T14:35:51.956Z,99956.78
2022-09-28T14:41:14.095Z,99988.69
2022-09-28T14:46:47.009Z,99995.88
2022-09-28T14:52:05.925Z,99988.69
2022-09-28T14:57:09.452Z,99958.63
2022-09-28T15:02:15.536Z,100015.94
2022-09-28T15:07:21.563Z,99976.47
2022-09-28T15:12:22.643Z,100002.13
2022-09-28T15:17:22.096Z,100023.47
2022-09-28T15:22:17.765Z,100020.50
2022-09-28T15:27:19.191Z,100027.97
2022-09-28T15:32:25.391Z,100029.66
2022-09-28T15:37:23.829Z,100035.44
2022-09-28T15:42:18.911Z,100034.69
2022-09-28T15:47:15.682Z,100028.97
2022-09-28T15:52:22.194Z,100037.56
2022-09-28T15:57:34.480Z,100034.88
2022-09-28T16:02:28.205Z,100044.47
2022-09-28T16:07:28.866Z,100022.34
2022-09-28T16:12:22.257Z,100036.66
2022-09-28T16:17:22.703Z,100039.25
2022-09-28T16:22:28.000Z,100042.47
2022-09-28T16:27:27.799Z,100016.84
2022-09-28T16:32:41.834Z,100043.22
2022-09-28T16:37:35.365Z,100039.72
2022-09-28T16:42:29.436Z,100050.94
2022-09-28T16:47:22.631Z,100060.97
2022-09-28T16:52:37.516Z,100025.94
2022-09-28T16:57:30.736Z,100031.84
2022-09-28T17:02:45.683Z,100060.13
2022-09-28T17:07:41.894Z,100070.09
2022-09-28T17:12:36.108Z,100070.28
2022-09-28T17:17:31.587Z,99999.41
2022-09-28T17:22:25.358Z,100066.59
2022-09-28T17:27:21.758Z,100006.94
2022-09-28T17:32:19.717Z,100073.75
2022-09-28T17:37:14.814Z,99872.25
2022-09-28T17:42:14.202Z,100075.41
2022-09-28T17:47:10.555Z,100077.63
2022-09-28T17:52:05.232Z,100065.78
2022-09-28T17:56:58.404Z,100031.44
2022-09-28T18:01:51.733Z,100068.97
2022-09-28T18:06:46.597Z,100026.81
2022-09-28T18:11:42.410Z,100075.50
2022-09-28T18:16:36.170Z,99985.13
2022-09-28T18:21:32.351Z,100086.22
2022-09-28T18:26:28.452Z,100056.22
2022-09-28T18:31:22.351Z,100090.84
2022-09-28T18:36:15.630Z,100021.66
2022-09-28T18:41:10.247Z,99985.28
2022-09-28T18:46:09.396Z,100052.53
2022-09-28T18:51:02.897Z,100060.72
2022-09-28T18:55:57.066Z,100081.31
2022-09-28T19:00:50.563Z,100026.34
2022-09-28T19:05:46.364Z,99984.84
2022-09-28T19:10:39.926Z,99893.78
2022-09-28T19:15:34.749Z,100027.56
2022-09-28T19:20:28.742Z,100103.03
2022-09-28T19:25:24.056Z,100051.09
2022-09-28T19:30:17.484Z,100102.72
2022-09-28T19:35:11.081Z,100109.28
2022-09-28T19:40:05.947Z,100120.50
2022-09-28T19:45:00.751Z,100120.28
2022-09-28T19:49:54.130Z,100044.44
2022-09-28T19:54:54.553Z,100122.06
2022-09-28T19:59:52.359Z,100108.56
2022-09-28T20:04:47.528Z,100121.88
2022-09-28T20:09:41.091Z,100136.75
2022-09-28T20:14:38.272Z,100067.03
2022-09-28T20:19:33.771Z,100132.41
2022-09-28T20:24:29.364Z,100139.31
2022-09-28T20:29:31.629Z,100125.34
2022-09-28T20:34:25.148Z,100104.81
2022-09-28T20:39:18.718Z,100097.09
2022-09-28T20:44:13.408Z,100111.09
2022-09-28T20:49:07.808Z,100128.06
2022-09-28T20:54:01.046Z,100147.06
2022-09-28T20:58:55.390Z,100099.00
2022-09-28T21:03:51.686Z,100107.38
2022-09-28T21:08:45.961Z,100148.38
2022-09-28T21:13:42.006Z,100154.00
2022-09-28T21:18:35.146Z,100140.66
2022-09-28T21:23:29.748Z,100162.63
2022-09-28T21:28:22.901Z,100000.28
2022-09-28T21:33:16.064Z,100131.59
2022-09-28T21:38:09.266Z,100125.06
2022-09-28T21:43:03.885Z,100156.22
2022-09-28T21:47:57.075Z,100150.47
2022-09-28T21:52:51.670Z,100139.38
2022-09-28T21:57:47.167Z,100087.59
2022-09-28T22:02:42.533Z,100122.59
2022-09-28T22:07:35.695Z,100103.47
2022-09-28T22:12:30.141Z,100160.44
2022-09-28T22:17:23.552Z,100117.28
2022-09-28T22:22:18.074Z,100126.44
2022-09-28T22:27:11.273Z,100088.66
2022-09-28T22:32:04.457Z,100144.59
2022-09-28T22:36:57.701Z,100152.06
2022-09-28T22:41:52.647Z,100158.22
2022-09-28T22:46:45.927Z,100114.13
2022-09-28T22:51:39.682Z,100092.47
2022-09-28T22:56:33.000Z,100133.47
2022-09-28T23:01:29.464Z,100096.16
2022-09-28T23:06:26.047Z,100058.44
2022-09-28T23:11:20.152Z,100128.88
2022-09-28T23:16:15.088Z,100093.03
2022-09-28T23:21:12.785Z,100106.53
2022-09-28T23:26:13.767Z,100057.09
2022-09-28T23:31:11.426Z,100112.03
2022-09-28T23:36:05.007Z,100081.34
2022-09-28T23:40:59.664Z,100107.34
2022-09-28T23:45:53.087Z,100112.66
2022-09-28T23:50:46.901Z,100022.25
2022-09-28T23:55:40.047Z,100115.00
